Terminal Aerodrome Forecast
Issued by NWS

Home | Current Version | Previous Version | Graphics & Text | Print | Product List | Glossary On
Versions: 1 2 3 4 5 6 7 8 9 10 11 12 13 14 15 16 17
016
FTUS43 KOAX 180531
TAFCDR
TAF
KCDR 180531Z 1806/1906 32010KT P6SM SCT025 BKN050 OVC100
     FM181000 29011KT P6SM SKC
     FM181600 31018G25KT P6SM SCT250
     FM182300 30007KT P6SM SCT250=

USA.gov is the U.S. government's official web portal to all federal, state and local government web resources and services.